createdAt,value
2018-09-17T00:00:49.045Z,0.00
2018-09-17T00:01:48.820Z,0.00
2018-09-17T00:02:48.801Z,0.00
2018-09-17T00:03:48.836Z,0.00
2018-09-17T00:04:48.921Z,0.00
2018-09-17T00:05:48.948Z,0.00
2018-09-17T00:06:48.931Z,0.00
2018-09-17T00:07:49.262Z,0.00
2018-09-17T00:08:48.995Z,0.00
2018-09-17T00:09:49.023Z,0.00
2018-09-17T00:10:49.109Z,0.00
2018-09-17T00:11:49.138Z,0.00
2018-09-17T00:12:49.125Z,0.00
2018-09-17T00:13:49.153Z,0.00
2018-09-17T00:14:49.536Z,0.00
2018-09-17T00:15:49.264Z,0.00
2018-09-17T00:16:49.248Z,0.00
2018-09-17T00:17:49.346Z,0.00
2018-09-17T00:18:49.354Z,0.00
2018-09-17T00:19:49.387Z,0.00
2018-09-17T00:20:49.426Z,0.00
2018-09-17T00:21:49.750Z,0.00
2018-09-17T00:22:49.488Z,0.00
2018-09-17T00:23:49.464Z,0.00
2018-09-17T00:24:49.548Z,0.00
2018-09-17T00:25:49.533Z,0.00
2018-09-17T00:26:49.569Z,0.00
2018-09-17T00:27:49.588Z,0.00
2018-09-17T00:28:49.982Z,0.00
2018-09-17T00:29:49.652Z,0.00
2018-09-17T00:30:49.682Z,0.00
2018-09-17T00:31:49.768Z,0.00
2018-09-17T00:32:49.744Z,0.00
2018-09-17T00:33:49.773Z,0.00
2018-09-17T00:34:49.864Z,0.00
2018-09-17T00:35:50.141Z,0.00
2018-09-17T00:36:49.918Z,0.00
2018-09-17T00:37:49.900Z,0.00
2018-09-17T00:38:49.978Z,0.00
2018-09-17T00:39:50.012Z,0.00
2018-09-17T00:40:49.988Z,0.00
2018-09-17T00:41:50.023Z,0.00
2018-09-17T00:42:50.351Z,0.00
2018-09-17T00:43:50.097Z,0.00
2018-09-17T00:44:50.168Z,0.00
2018-09-17T00:45:50.199Z,0.00
2018-09-17T00:46:50.180Z,0.00
2018-09-17T00:47:50.213Z,0.00
2018-09-17T00:48:50.547Z,0.00
2018-09-17T00:49:50.269Z,0.00
2018-09-17T00:50:50.354Z,0.00
2018-09-17T00:51:50.381Z,0.00
2018-09-17T00:52:50.413Z,0.00
2018-09-17T00:53:50.444Z,0.00
2018-09-17T00:54:50.777Z,0.00
2018-09-17T00:55:50.511Z,0.00
2018-09-17T00:56:50.487Z,0.00
2018-09-17T00:57:50.618Z,0.00
2018-09-17T00:58:50.552Z,0.00
2018-09-17T00:59:50.583Z,0.00
2018-09-17T01:00:50.961Z,0.00
2018-09-17T01:01:50.643Z,0.00
2018-09-17T01:02:50.679Z,0.00
2018-09-17T01:03:50.708Z,0.00
2018-09-17T01:04:50.734Z,0.00
2018-09-17T01:05:50.818Z,0.00
2018-09-17T01:06:50.822Z,0.00
2018-09-17T01:07:51.184Z,0.00
2018-09-17T01:08:50.862Z,0.00
2018-09-17T01:09:50.943Z,0.00
2018-09-17T01:10:50.975Z,0.00
2018-09-17T01:11:50.957Z,0.00
2018-09-17T01:12:51.037Z,0.00
2018-09-17T01:13:51.023Z,0.00
2018-09-17T01:14:51.349Z,0.00
2018-09-17T01:15:51.088Z,0.00
2018-09-17T01:16:51.210Z,0.00
2018-09-17T01:17:51.196Z,0.00
2018-09-17T01:18:51.171Z,0.00
2018-09-17T01:19:51.257Z,0.00
2018-09-17T01:20:51.231Z,0.00
2018-09-17T01:21:51.567Z,0.00
2018-09-17T01:22:51.342Z,0.00
2018-09-17T01:23:51.324Z,0.00
2018-09-17T01:24:51.404Z,0.00
2018-09-17T01:25:51.390Z,0.00
2018-09-17T01:26:51.483Z,0.00
2018-09-17T01:27:51.496Z,0.00
2018-09-17T01:28:51.779Z,0.00
2018-09-17T01:29:51.566Z,0.00
2018-09-17T01:30:51.543Z,0.00
2018-09-17T01:31:51.579Z,0.00
2018-09-17T01:32:51.667Z,0.00
2018-09-17T01:33:51.631Z,0.00
2018-09-17T01:34:51.722Z,0.00
2018-09-17T01:35:51.997Z,0.00
2018-09-17T01:36:51.728Z,0.00
2018-09-17T01:37:51.759Z,0.00
2018-09-17T01:38:51.792Z,0.00
2018-09-17T01:39:52.223Z,0.00
2018-09-17T01:40:51.901Z,0.00
2018-09-17T01:41:51.942Z,0.00
2018-09-17T01:42:52.266Z,0.00
2018-09-17T01:43:51.946Z,0.00
2018-09-17T01:44:52.026Z,0.00
2018-09-17T01:45:52.456Z,0.00
2018-09-17T01:46:52.043Z,0.00
2018-09-17T01:47:52.069Z,0.00
2018-09-17T01:48:52.098Z,0.00
2018-09-17T01:49:52.425Z,0.00
2018-09-17T01:50:52.211Z,0.00
2018-09-17T01:51:52.244Z,0.00
2018-09-17T01:52:52.225Z,0.00
2018-09-17T01:53:52.300Z,0.00
2018-09-17T01:54:52.289Z,0.00
2018-09-17T01:55:52.370Z,0.00
2018-09-17T01:56:52.640Z,0.00
2018-09-17T01:57:52.431Z,0.00
2018-09-17T01:58:52.451Z,0.00
2018-09-17T01:59:52.495Z,0.00
2018-09-17T02:00:52.482Z,0.00
2018-09-17T02:01:52.503Z,0.00
2018-09-17T02:02:52.575Z,0.00
2018-09-17T02:03:52.902Z,0.00
2018-09-17T02:04:52.739Z,0.00
2018-09-17T02:05:52.615Z,0.00
2018-09-17T02:06:52.666Z,0.00
2018-09-17T02:07:52.684Z,0.00
2018-09-17T02:08:52.729Z,0.00
2018-09-17T02:09:52.841Z,0.00
2018-09-17T02:10:53.122Z,0.00
2018-09-17T02:11:52.860Z,0.00
2018-09-17T02:12:52.845Z,0.00
2018-09-17T02:13:52.911Z,0.00
2018-09-17T02:14:52.911Z,0.00
2018-09-17T02:15:52.925Z,0.00
2018-09-17T02:16:53.016Z,0.00
2018-09-17T02:17:53.290Z,0.00
2018-09-17T02:18:53.065Z,0.00
2018-09-17T02:19:53.054Z,0.00
2018-09-17T02:20:53.088Z,0.00
2018-09-17T02:21:53.106Z,0.00
2018-09-17T02:22:53.143Z,0.00
2018-09-17T02:23:53.223Z,0.00
2018-09-17T02:24:53.507Z,0.00
2018-09-17T02:25:53.279Z,0.00
2018-09-17T02:26:53.262Z,0.00
2018-09-17T02:27:53.344Z,0.00
2018-09-17T02:28:53.328Z,0.00
2018-09-17T02:29:53.401Z,0.00
2018-09-17T02:30:53.381Z,0.00
2018-09-17T02:31:53.716Z,0.00
2018-09-17T02:32:53.502Z,0.00
2018-09-17T02:33:53.545Z,0.00
2018-09-17T02:34:53.511Z,0.00
2018-09-17T02:36:53.569Z,0.00
2018-09-17T02:37:53.905Z,0.00
2018-09-17T02:38:53.682Z,0.00
2018-09-17T02:39:53.661Z,0.00
2018-09-17T02:40:53.742Z,0.00
2018-09-17T02:41:53.768Z,0.00
2018-09-17T02:42:53.799Z,0.00
2018-09-17T02:43:54.089Z,0.00
2018-09-17T02:44:53.815Z,0.00
2018-09-17T02:45:53.842Z,0.00
2018-09-17T02:46:53.923Z,0.00
2018-09-17T02:47:53.965Z,0.00
2018-09-17T02:48:53.988Z,0.00
2018-09-17T02:49:54.270Z,0.00
2018-09-17T02:50:54.002Z,0.00
2018-09-17T02:51:54.038Z,0.00
2018-09-17T02:52:54.059Z,0.00
2018-09-17T02:53:54.152Z,0.00
2018-09-17T02:54:54.123Z,0.00
2018-09-17T02:55:54.205Z,0.00
2018-09-17T02:56:54.492Z,0.00
2018-09-17T02:57:54.208Z,0.00
2018-09-17T02:58:54.294Z,0.00
2018-09-17T02:59:54.336Z,0.00
2018-09-17T03:00:54.312Z,0.00
2018-09-17T03:01:54.384Z,0.00
2018-09-17T03:02:54.365Z,0.00
2018-09-17T03:03:54.747Z,0.00
2018-09-17T03:06:54.493Z,0.00
2018-09-17T03:07:54.511Z,0.00
2018-09-17T03:08:54.594Z,0.00
2018-09-17T03:09:54.624Z,0.00
2018-09-17T03:10:54.907Z,0.00
2018-09-17T03:11:54.691Z,0.00
2018-09-17T03:12:54.668Z,0.00
2018-09-17T03:13:54.704Z,0.00
2018-09-17T03:14:54.773Z,0.00
2018-09-17T03:15:54.811Z,0.00
2018-09-17T03:16:54.793Z,0.00
2018-09-17T03:17:55.125Z,0.00
2018-09-17T03:18:54.852Z,0.00
2018-09-17T03:19:54.878Z,0.00
2018-09-17T03:21:54.986Z,0.00
2018-09-17T03:22:54.970Z,0.00
2018-09-17T03:23:55.051Z,0.00
2018-09-17T03:24:55.429Z,0.00
2018-09-17T03:25:55.111Z,0.00
2018-09-17T03:26:55.091Z,0.00
2018-09-17T03:27:55.175Z,0.00
2018-09-17T03:28:55.156Z,0.00
2018-09-17T03:29:55.189Z,0.00
2018-09-17T03:30:55.267Z,0.00
2018-09-17T03:31:55.546Z,0.00
2018-09-17T03:32:55.329Z,0.00
2018-09-17T03:33:55.322Z,0.00
2018-09-17T03:34:55.334Z,0.00
2018-09-17T03:35:55.367Z,0.00
2018-09-17T03:36:55.452Z,0.00
2018-09-17T03:37:55.425Z,0.00
2018-09-17T03:38:55.757Z,0.00
2018-09-17T03:39:55.535Z,0.00
2018-09-17T03:40:55.516Z,0.00
2018-09-17T03:41:55.602Z,0.00
2018-09-17T03:42:55.699Z,0.00
2018-09-17T03:43:55.659Z,0.00
2018-09-17T03:44:55.640Z,0.00
2018-09-17T03:45:55.967Z,0.00
2018-09-17T03:46:55.844Z,0.00
2018-09-17T03:47:55.776Z,0.00
2018-09-17T03:48:55.814Z,0.00
2018-09-17T03:49:55.784Z,0.00
2018-09-17T03:50:55.816Z,0.00
2018-09-17T03:51:56.108Z,0.00
2018-09-17T03:52:56.230Z,0.00
2018-09-17T03:53:55.912Z,0.00
2018-09-17T03:54:55.941Z,0.00
2018-09-17T03:55:56.023Z,0.00
2018-09-17T03:56:56.015Z,0.00
2018-09-17T03:57:56.081Z,0.00
2018-09-17T03:58:56.071Z,0.00
2018-09-17T03:59:56.395Z,0.00
2018-09-17T04:00:56.122Z,0.00
2018-09-17T04:01:56.200Z,0.00
2018-09-17T04:02:56.191Z,0.00
2018-09-17T04:03:56.273Z,0.00
2018-09-17T04:04:56.248Z,0.00
2018-09-17T04:05:56.277Z,0.00
2018-09-17T04:06:56.627Z,0.00
2018-09-17T04:07:56.384Z,0.00
2018-09-17T04:08:56.419Z,0.00
2018-09-17T04:09:56.397Z,0.00
2018-09-17T04:10:56.439Z,0.00
2018-09-17T04:11:56.467Z,0.00
2018-09-17T04:12:56.541Z,0.00
2018-09-17T04:13:56.878Z,0.00
2018-09-17T04:14:56.560Z,0.00
2018-09-17T04:15:56.626Z,0.00
2018-09-17T04:16:56.611Z,0.00
2018-09-17T04:17:56.688Z,0.00
2018-09-17T04:18:56.670Z,0.00
2018-09-17T04:19:56.750Z,0.00
2018-09-17T04:20:57.033Z,0.00
2018-09-17T04:21:56.812Z,0.00
2018-09-17T04:22:56.795Z,0.00
2018-09-17T04:23:56.823Z,0.00
2018-09-17T04:24:56.907Z,0.00
2018-09-17T04:25:56.928Z,0.00
2018-09-17T04:26:56.908Z,0.00
2018-09-17T04:27:57.241Z,0.00
2018-09-17T04:28:57.022Z,0.00
2018-09-17T04:29:57.006Z,0.00
2018-09-17T04:30:57.085Z,0.00
2018-09-17T04:31:57.113Z,0.00
2018-09-17T04:32:57.183Z,0.00
2018-09-17T04:33:57.420Z,0.00
2018-09-17T04:34:57.154Z,0.00
2018-09-17T04:35:57.236Z,0.00
2018-09-17T04:36:57.224Z,0.00
2018-09-17T04:37:57.293Z,0.00
2018-09-17T04:38:57.276Z,0.00
2018-09-17T04:39:57.654Z,0.00
2018-09-17T04:40:57.390Z,0.00
2018-09-17T04:41:57.374Z,0.00
2018-09-17T04:42:57.443Z,0.00
2018-09-17T04:43:57.488Z,0.00
2018-09-17T04:44:57.457Z,0.00
2018-09-17T04:45:57.790Z,0.00
2018-09-17T04:46:57.572Z,0.00
2018-09-17T04:47:57.601Z,0.00
2018-09-17T04:48:57.581Z,4.00
2018-09-17T04:49:57.657Z,4.00
2018-09-17T04:50:57.636Z,4.00
2018-09-17T04:51:57.714Z,4.00
2018-09-17T04:52:58.051Z,4.00
2018-09-17T04:53:57.728Z,8.00
2018-09-17T04:54:58.079Z,4.00
2018-09-17T04:55:57.792Z,8.00
2018-09-17T04:56:57.871Z,8.00
2018-09-17T04:57:57.900Z,8.00
2018-09-17T04:58:57.890Z,12.00
2018-09-17T04:59:57.916Z,16.00
2018-09-17T05:00:57.986Z,20.00
2018-09-17T05:01:57.972Z,20.00
2018-09-17T05:02:58.066Z,24.00
2018-09-17T05:03:58.083Z,24.00
2018-09-17T05:04:58.113Z,32.00
2018-09-17T05:05:58.390Z,36.00
2018-09-17T05:06:58.172Z,40.00
2018-09-17T05:07:58.201Z,44.00
2018-09-17T05:08:58.344Z,56.00
2018-09-17T05:09:58.255Z,56.00
2018-09-17T05:10:58.238Z,64.00
2018-09-17T05:11:58.322Z,68.00
2018-09-17T05:12:58.690Z,76.00
2018-09-17T05:13:58.403Z,80.00
2018-09-17T05:14:58.370Z,88.00
2018-09-17T05:15:58.446Z,96.00
2018-09-17T05:16:58.478Z,100.00
2018-09-17T05:17:58.453Z,108.00
2018-09-17T05:18:58.528Z,116.00
2018-09-17T05:19:58.819Z,124.00
2018-09-17T05:20:58.594Z,136.00
2018-09-17T05:21:58.622Z,144.00
2018-09-17T05:22:58.652Z,156.00
2018-09-17T05:23:58.677Z,168.00
2018-09-17T05:24:58.715Z,180.00
2018-09-17T05:25:58.694Z,192.00
2018-09-17T05:26:59.071Z,204.00
2018-09-17T05:27:58.813Z,216.00
2018-09-17T05:28:58.779Z,224.00
2018-09-17T05:29:58.857Z,236.00
2018-09-17T05:30:58.888Z,244.00
2018-09-17T05:31:58.917Z,256.00
2018-09-17T05:32:58.957Z,264.00
2018-09-17T05:33:59.238Z,276.00
2018-09-17T05:34:58.992Z,280.00
2018-09-17T05:35:59.042Z,292.00
2018-09-17T05:36:59.025Z,304.00
2018-09-17T05:37:59.101Z,316.00
2018-09-17T05:38:59.087Z,324.00
2018-09-17T05:39:59.162Z,336.00
2018-09-17T05:40:59.502Z,348.00
2018-09-17T05:41:59.217Z,356.00
2018-09-17T05:42:59.205Z,364.00
2018-09-17T05:43:59.232Z,380.00
2018-09-17T05:44:59.269Z,388.00
2018-09-17T05:45:59.364Z,400.00
2018-09-17T05:46:59.319Z,412.00
2018-09-17T05:47:59.709Z,420.00
2018-09-17T05:48:59.383Z,432.00
2018-09-17T05:49:59.461Z,440.00
2018-09-17T05:50:59.443Z,448.00
2018-09-17T05:51:59.525Z,456.00
2018-09-17T05:52:59.650Z,468.00
2018-09-17T05:53:59.833Z,480.00
2018-09-17T05:54:59.570Z,488.00
2018-09-17T05:55:59.641Z,500.00
2018-09-17T05:56:59.626Z,508.00
2018-09-17T05:57:59.651Z,524.00
2018-09-17T05:58:59.729Z,532.00
2018-09-17T06:00:00.018Z,548.00
2018-09-17T06:00:59.793Z,556.00
2018-09-17T06:01:59.774Z,568.00
2018-09-17T06:02:59.812Z,580.00
2018-09-17T06:03:59.891Z,588.00
2018-09-17T06:05:00.083Z,604.00
2018-09-17T06:06:00.252Z,612.00
2018-09-17T06:06:59.949Z,620.00
2018-09-17T06:08:00.004Z,632.00
2018-09-17T06:08:59.989Z,640.00
2018-09-17T06:10:00.063Z,656.00
2018-09-17T06:11:00.158Z,664.00
2018-09-17T06:12:00.075Z,672.00
2018-09-17T06:13:00.405Z,676.00
2018-09-17T06:14:00.191Z,684.00
2018-09-17T06:15:00.163Z,692.00
2018-09-17T06:16:00.258Z,700.00
2018-09-17T06:17:00.220Z,708.00
2018-09-17T06:18:00.312Z,716.00
2018-09-17T06:19:00.278Z,728.00
2018-09-17T06:20:00.623Z,732.00
2018-09-17T06:21:00.389Z,744.00
2018-09-17T06:22:00.428Z,752.00
2018-09-17T06:23:00.410Z,764.00
2018-09-17T06:24:00.495Z,788.00
2018-09-17T06:25:00.470Z,804.00
2018-09-17T06:26:00.502Z,816.00
2018-09-17T06:27:00.875Z,832.00
2018-09-17T06:28:00.642Z,844.00
2018-09-17T06:29:00.586Z,856.00
2018-09-17T06:30:00.610Z,868.00
2018-09-17T06:31:00.708Z,872.00
2018-09-17T06:32:00.719Z,884.00
2018-09-17T06:33:00.704Z,908.00
2018-09-17T06:34:01.033Z,916.00
2018-09-17T06:35:00.761Z,924.00
2018-09-17T06:36:00.900Z,932.00
2018-09-17T06:37:00.878Z,936.00
2018-09-17T06:38:00.904Z,940.00
2018-09-17T06:39:00.884Z,944.00
2018-09-17T06:40:00.916Z,948.00
2018-09-17T06:41:01.250Z,956.00
2018-09-17T06:42:01.034Z,964.00
2018-09-17T06:43:01.057Z,972.00
2018-09-17T06:44:01.088Z,976.00
2018-09-17T06:45:01.147Z,984.00
2018-09-17T06:46:01.094Z,984.00
2018-09-17T06:47:01.180Z,992.00
2018-09-17T06:48:01.452Z,1000.00
2018-09-17T06:49:01.234Z,1004.00
2018-09-17T06:50:01.220Z,1008.00
2018-09-17T06:51:01.295Z,1016.00
2018-09-17T06:52:01.275Z,1016.00
2018-09-17T06:53:01.368Z,1024.00
2018-09-17T06:54:01.392Z,1028.00
2018-09-17T06:55:01.672Z,1036.00
2018-09-17T06:56:01.402Z,1044.00
2018-09-17T06:57:01.429Z,1056.00
2018-09-17T06:58:01.463Z,1060.00
2018-09-17T06:59:01.546Z,1064.00
2018-09-17T07:00:01.574Z,1080.00
2018-09-17T07:01:01.552Z,1084.00
2018-09-17T07:02:01.882Z,1088.00
2018-09-17T07:03:01.815Z,1100.00
2018-09-17T07:04:01.686Z,1108.00
2018-09-17T07:05:01.676Z,1108.00
2018-09-17T07:06:01.758Z,1120.00
2018-09-17T07:07:01.731Z,1132.00
2018-09-17T07:09:01.849Z,1152.00
2018-09-17T07:10:02.217Z,1164.00
2018-09-17T07:11:01.911Z,1176.00
2018-09-17T07:12:01.895Z,1188.00
2018-09-17T07:13:01.960Z,1204.00
2018-09-17T07:14:01.993Z,1216.00
2018-09-17T07:15:01.971Z,1236.00
2018-09-17T07:16:02.009Z,1244.00
2018-09-17T07:17:02.342Z,1256.00
2018-09-17T07:18:02.098Z,1268.00
2018-09-17T07:19:02.150Z,1280.00
2018-09-17T07:20:02.135Z,1280.00
2018-09-17T07:21:02.159Z,1284.00
2018-09-17T07:22:02.246Z,1296.00
2018-09-17T07:23:02.218Z,1296.00
2018-09-17T07:24:02.547Z,1304.00
2018-09-17T07:25:02.324Z,1300.00
2018-09-17T07:26:02.360Z,1300.00
2018-09-17T07:27:02.362Z,1288.00
2018-09-17T07:28:02.415Z,1292.00
2018-09-17T07:29:02.398Z,1280.00
2018-09-17T07:30:02.481Z,1276.00
2018-09-17T07:31:02.760Z,1272.00
2018-09-17T07:32:02.493Z,1268.00
2018-09-17T07:33:02.574Z,1264.00
2018-09-17T07:34:02.610Z,1256.00
2018-09-17T07:35:02.589Z,1256.00
2018-09-17T07:36:02.668Z,1248.00
2018-09-17T07:37:02.700Z,1260.00
2018-09-17T07:38:02.986Z,1252.00
2018-09-17T07:39:02.754Z,1252.00
2018-09-17T07:40:02.740Z,1260.00
2018-09-17T07:41:02.827Z,1264.00
2018-09-17T07:42:02.878Z,1272.00
2018-09-17T07:43:02.828Z,1280.00
2018-09-17T07:44:02.853Z,1296.00
2018-09-17T07:45:03.186Z,1304.00
2018-09-17T07:46:02.965Z,1316.00
2018-09-17T07:47:02.975Z,1328.00
2018-09-17T07:48:03.034Z,1340.00
2018-09-17T07:49:03.265Z,1364.00
2018-09-17T07:50:03.043Z,1364.00
2018-09-17T07:51:03.123Z,1384.00
2018-09-17T07:52:03.399Z,1396.00
2018-09-17T07:53:03.135Z,1412.00
2018-09-17T07:54:03.161Z,1444.00
2018-09-17T07:55:03.200Z,1460.00
2018-09-17T07:56:03.273Z,1488.00
2018-09-17T07:57:03.283Z,1508.00
2018-09-17T07:58:03.342Z,1516.00
2018-09-17T07:59:03.623Z,1532.00
2018-09-17T08:00:03.346Z,1544.00
2018-09-17T08:01:03.431Z,1556.00
2018-09-17T08:02:03.462Z,1556.00
2018-09-17T08:03:03.491Z,1572.00
2018-09-17T08:04:03.484Z,1588.00
2018-09-17T08:05:03.553Z,1608.00
2018-09-17T08:06:03.831Z,1616.00
2018-09-17T08:07:03.622Z,1624.00
2018-09-17T08:08:03.648Z,1628.00
2018-09-17T08:09:03.626Z,1636.00
2018-09-17T08:10:03.657Z,1648.00
2018-09-17T08:11:03.741Z,1652.00
2018-09-17T08:12:04.019Z,1660.00
2018-09-17T08:13:03.750Z,1676.00
2018-09-17T08:14:03.846Z,1684.00
2018-09-17T08:15:03.830Z,1720.00
2018-09-17T08:16:03.893Z,1736.00
2018-09-17T08:17:03.980Z,1748.00
2018-09-17T08:18:04.205Z,1764.00
2018-09-17T08:19:04.025Z,1772.00
2018-09-17T08:20:03.998Z,1792.00
2018-09-17T08:21:03.995Z,1784.00
2018-09-17T08:22:04.080Z,1816.00
2018-09-17T08:23:04.113Z,1840.00
2018-09-17T08:24:04.397Z,1864.00
2018-09-17T08:25:04.174Z,1880.00
2018-09-17T08:26:04.154Z,1888.00
2018-09-17T08:27:04.246Z,1908.00
2018-09-17T08:28:04.218Z,1936.00
2018-09-17T08:29:04.300Z,1952.00
2018-09-17T08:30:04.329Z,1980.00
2018-09-17T08:32:04.640Z,2052.00
2018-09-17T08:33:04.425Z,2104.00
2018-09-17T08:34:04.416Z,2144.00
2018-09-17T08:35:04.492Z,2152.00
2018-09-17T08:36:04.525Z,2160.00
2018-09-17T08:37:04.544Z,2172.00
2018-09-17T08:38:04.631Z,2176.00
2018-09-17T08:39:04.563Z,2188.00
2018-09-17T08:40:04.638Z,2196.00
2018-09-17T08:41:04.674Z,2192.00
2018-09-17T08:42:04.665Z,2184.00
2018-09-17T08:43:04.731Z,2184.00
2018-09-17T08:44:05.024Z,2180.00
2018-09-17T08:45:04.748Z,2164.00
2018-09-17T08:46:04.833Z,2144.00
2018-09-17T08:47:04.816Z,2128.00
2018-09-17T08:48:04.899Z,2120.00
2018-09-17T08:49:04.921Z,2096.00
2018-09-17T08:50:04.958Z,2092.00
2018-09-17T08:51:04.990Z,2060.00
2018-09-17T08:52:05.053Z,2020.00
2018-09-17T08:53:05.026Z,1988.00
2018-09-17T08:54:05.032Z,1956.00
2018-09-17T08:55:05.115Z,1940.00
2018-09-17T08:56:05.144Z,1908.00
2018-09-17T08:57:05.426Z,1892.00
2018-09-17T08:58:05.208Z,1872.00
2018-09-17T08:59:05.183Z,1860.00
2018-09-17T09:00:05.289Z,1852.00
2018-09-17T09:01:05.300Z,1840.00
2018-09-17T09:02:05.332Z,1844.00
2018-09-17T09:03:05.618Z,1848.00
2018-09-17T09:04:05.448Z,1860.00
2018-09-17T09:05:05.448Z,1852.00
2018-09-17T09:06:05.406Z,1852.00
2018-09-17T09:07:05.488Z,1872.00
2018-09-17T09:08:05.517Z,1884.00
2018-09-17T09:09:05.848Z,1892.00
2018-09-17T09:10:05.538Z,1932.00
2018-09-17T09:11:05.565Z,1972.00
2018-09-17T09:12:05.643Z,2000.00
2018-09-17T09:13:05.631Z,2024.00
2018-09-17T09:14:05.707Z,2040.00
2018-09-17T09:15:05.748Z,2064.00
2018-09-17T09:16:05.722Z,2092.00
2018-09-17T09:17:05.801Z,2092.00
2018-09-17T09:18:05.838Z,2092.00
2018-09-17T09:19:05.873Z,2092.00
2018-09-17T09:20:05.907Z,2088.00
2018-09-17T09:21:06.180Z,2084.00
2018-09-17T09:22:06.000Z,2068.00
2018-09-17T09:23:05.962Z,2044.00
2018-09-17T09:24:06.025Z,2020.00
2018-09-17T09:25:06.005Z,1992.00
2018-09-17T09:26:06.040Z,1968.00
2018-09-17T09:27:06.131Z,1924.00
2018-09-17T09:28:06.408Z,1904.00
2018-09-17T09:29:06.142Z,1880.00
2018-09-17T09:30:06.171Z,1860.00
2018-09-17T09:31:06.261Z,1836.00
2018-09-17T09:32:06.227Z,1824.00
2018-09-17T09:33:06.311Z,1808.00
2018-09-17T09:34:06.296Z,1808.00
2018-09-17T09:35:06.630Z,1792.00
2018-09-17T09:36:06.382Z,1808.00
2018-09-17T09:37:06.452Z,1816.00
2018-09-17T09:38:06.504Z,1832.00
2018-09-17T09:39:06.503Z,1856.00
2018-09-17T09:40:06.554Z,1872.00
2018-09-17T09:41:06.527Z,1888.00
2018-09-17T09:42:06.861Z,1904.00
2018-09-17T09:43:06.631Z,1904.00
2018-09-17T09:44:06.615Z,1908.00
2018-09-17T09:45:06.698Z,1916.00
2018-09-17T09:46:06.677Z,1908.00
2018-09-17T09:47:06.714Z,1900.00
2018-09-17T09:48:06.738Z,1892.00
2018-09-17T09:49:07.073Z,1884.00
2018-09-17T09:50:06.865Z,1876.00
2018-09-17T09:51:06.840Z,1880.00
2018-09-17T09:52:06.919Z,1888.00
2018-09-17T09:53:06.948Z,1896.00
2018-09-17T09:54:06.987Z,1896.00
2018-09-17T09:56:07.047Z,1880.00
2018-09-17T09:57:07.036Z,1888.00
2018-09-17T09:58:07.114Z,1888.00
2018-09-17T09:59:07.146Z,1884.00
2018-09-17T10:00:07.172Z,1888.00
2018-09-17T10:01:07.211Z,1896.00
2018-09-17T10:02:07.189Z,1900.00
2018-09-17T10:03:07.531Z,1900.00
2018-09-17T10:04:07.311Z,1892.00
2018-09-17T10:05:07.344Z,1908.00
2018-09-17T10:06:07.368Z,1896.00
2018-09-17T10:07:07.371Z,1884.00
2018-09-17T10:08:07.449Z,1876.00
2018-09-17T10:09:08.932Z,1860.00
2018-09-17T10:10:07.779Z,1872.00
2018-09-17T10:11:07.535Z,1896.00
2018-09-17T10:12:07.559Z,1880.00
2018-09-17T10:13:07.548Z,1884.00
2018-09-17T10:14:07.629Z,1880.00
2018-09-17T10:15:07.609Z,1868.00
2018-09-17T10:16:07.693Z,1868.00
2018-09-17T10:17:08.026Z,1856.00
2018-09-17T10:18:07.710Z,1836.00
2018-09-17T10:19:07.737Z,1828.00
2018-09-17T10:20:07.820Z,1828.00
2018-09-17T10:21:07.851Z,1824.00
2018-09-17T10:22:07.879Z,1824.00
2018-09-17T10:23:07.869Z,1812.00
2018-09-17T10:24:08.193Z,1800.00
2018-09-17T10:25:07.938Z,1788.00
2018-09-17T10:26:08.012Z,1776.00
2018-09-17T10:27:07.999Z,1768.00
2018-09-17T10:28:08.083Z,1764.00
2018-09-17T10:29:08.077Z,1752.00
2018-09-17T10:30:08.391Z,1748.00
2018-09-17T10:31:08.176Z,1744.00
2018-09-17T10:32:08.212Z,1740.00
2018-09-17T10:33:08.184Z,1736.00
2018-09-17T10:34:08.269Z,1732.00
2018-09-17T10:35:08.276Z,1736.00
2018-09-17T10:36:08.606Z,1740.00
2018-09-17T10:37:08.369Z,1760.00
2018-09-17T10:38:08.359Z,1772.00
2018-09-17T10:39:08.448Z,1788.00
2018-09-17T10:40:08.427Z,1796.00
2018-09-17T10:41:08.444Z,1816.00
2018-09-17T10:42:08.780Z,1820.00
2018-09-17T10:43:08.570Z,1832.00
2018-09-17T10:44:08.590Z,1844.00
2018-09-17T10:45:08.581Z,1864.00
2018-09-17T10:46:08.660Z,1884.00
2018-09-17T10:47:08.642Z,1888.00
2018-09-17T10:48:08.679Z,1900.00
2018-09-17T10:49:09.006Z,1920.00
2018-09-17T10:50:08.738Z,1932.00
2018-09-17T10:51:08.825Z,1948.00
2018-09-17T10:52:08.979Z,1948.00
2018-09-17T10:53:08.846Z,1956.00
2018-09-17T10:54:08.888Z,1964.00
2018-09-17T10:55:08.961Z,1964.00
2018-09-17T10:56:09.238Z,1964.00
2018-09-17T10:57:09.016Z,1964.00
2018-09-17T10:58:08.993Z,1960.00
2018-09-17T10:59:09.025Z,1944.00
2018-09-17T11:00:09.065Z,1936.00
2018-09-17T11:01:09.096Z,1932.00
2018-09-17T11:02:09.185Z,1936.00
2018-09-17T11:03:09.456Z,1932.00
2018-09-17T11:04:09.347Z,1948.00
2018-09-17T11:05:09.234Z,1940.00
2018-09-17T11:06:09.331Z,1940.00
2018-09-17T11:07:09.299Z,1944.00
2018-09-17T11:08:09.338Z,1944.00
2018-09-17T11:09:09.351Z,1960.00
2018-09-17T11:10:10.534Z,1968.00
2018-09-17T11:11:09.466Z,1984.00
2018-09-17T11:12:09.509Z,2000.00
2018-09-17T11:13:09.548Z,2016.00
2018-09-17T11:14:09.591Z,2008.00
2018-09-17T11:15:09.560Z,2012.00
2018-09-17T11:16:09.580Z,2016.00
2018-09-17T11:17:09.669Z,2024.00
2018-09-17T11:18:09.711Z,2036.00
2018-09-17T11:19:09.684Z,2040.00
2018-09-17T11:20:09.764Z,2072.00
2018-09-17T11:21:09.748Z,2076.00
2018-09-17T11:22:09.840Z,2076.00
2018-09-17T11:23:10.160Z,2076.00
2018-09-17T11:24:09.894Z,2084.00
2018-09-17T11:25:09.904Z,2088.00
2018-09-17T11:26:09.914Z,2084.00
2018-09-17T11:27:09.991Z,2088.00
2018-09-17T11:28:10.032Z,2092.00
2018-09-17T11:29:10.017Z,2096.00
2018-09-17T11:30:10.393Z,2108.00
2018-09-17T11:31:10.088Z,2096.00
2018-09-17T11:32:10.164Z,2124.00
2018-09-17T11:33:10.194Z,2160.00
2018-09-17T11:34:10.225Z,2180.00
2018-09-17T11:35:10.218Z,2172.00
2018-09-17T11:36:10.287Z,2168.00
2018-09-17T11:37:10.564Z,2140.00
2018-09-17T11:38:10.349Z,2132.00
2018-09-17T11:39:10.329Z,2148.00
2018-09-17T11:40:10.428Z,2168.00
2018-09-17T11:41:10.449Z,2200.00
2018-09-17T11:42:10.485Z,2220.00
2018-09-17T11:43:10.517Z,2248.00
2018-09-17T11:44:10.858Z,2264.00
2018-09-17T11:45:10.578Z,2292.00
2018-09-17T11:46:10.572Z,2304.00
2018-09-17T11:47:10.598Z,2328.00
2018-09-17T11:48:10.711Z,2324.00
2018-09-17T11:49:10.711Z,2316.00
2018-09-17T11:50:11.017Z,2316.00
2018-09-17T11:51:10.730Z,2316.00
2018-09-17T11:52:10.816Z,2308.00
2018-09-17T11:53:10.788Z,2320.00
2018-09-17T11:54:10.895Z,2320.00
2018-09-17T11:55:10.859Z,2344.00
2018-09-17T11:56:11.242Z,2368.00
2018-09-17T11:57:10.926Z,2368.00
2018-09-17T11:58:10.961Z,2396.00
2018-09-17T11:59:11.032Z,2396.00
2018-09-17T12:00:11.101Z,2432.00
2018-09-17T12:01:11.058Z,2416.00
2018-09-17T12:02:11.495Z,2464.00
2018-09-17T12:03:11.118Z,2476.00
2018-09-17T12:04:11.206Z,2516.00
2018-09-17T12:05:11.239Z,2532.00
2018-09-17T12:06:11.268Z,2560.00
2018-09-17T12:07:11.311Z,2564.00
2018-09-17T12:08:11.335Z,2588.00
2018-09-17T12:09:11.630Z,2588.00
2018-09-17T12:10:11.405Z,2616.00
2018-09-17T12:11:11.434Z,2624.00
2018-09-17T12:12:11.468Z,2640.00
2018-09-17T12:13:11.454Z,2652.00
2018-09-17T12:14:11.826Z,2668.00
2018-09-17T12:15:11.514Z,2684.00
2018-09-17T12:16:11.845Z,2700.00
2018-09-17T12:17:11.633Z,2712.00
2018-09-17T12:18:11.608Z,2724.00
2018-09-17T12:19:11.739Z,2744.00
2018-09-17T12:20:11.739Z,2768.00
2018-09-17T12:21:11.736Z,2780.00
2018-09-17T12:22:11.753Z,2796.00
2018-09-17T12:23:12.078Z,2812.00
2018-09-17T12:24:11.872Z,2824.00
2018-09-17T12:25:11.842Z,2836.00
2018-09-17T12:26:11.874Z,2844.00
2018-09-17T12:27:11.925Z,2872.00
2018-09-17T12:28:12.007Z,2880.00
2018-09-17T12:29:12.049Z,2900.00
2018-09-17T12:30:12.312Z,2920.00
2018-09-17T12:31:12.095Z,2944.00
2018-09-17T12:32:12.130Z,2976.00
2018-09-17T12:33:12.108Z,3004.00
2018-09-17T12:34:12.189Z,3036.00
2018-09-17T12:35:12.179Z,3064.00
2018-09-17T12:36:12.261Z,3096.00
2018-09-17T12:37:12.534Z,3124.00
2018-09-17T12:38:12.319Z,3152.00
2018-09-17T12:39:12.325Z,3180.00
2018-09-17T12:40:12.338Z,3216.00
2018-09-17T12:41:12.459Z,3264.00
2018-09-17T12:42:12.457Z,3296.00
2018-09-17T12:43:12.490Z,3376.00
2018-09-17T12:44:12.531Z,3496.00